Anniston, Missouri
Current Conditions -  °F | °C
As of 8:15 PM on Friday 28 Nov 2014 (Local Time) from KCIR Reporting Station
Clear Clear  
Wind Chill: 38°   Ceiling: Unl
Heat Index: 41°   Visibility: 10mi
Dew Point: 29°   Wind: 5mph
Humidity: 61%   Direction: 180°S
Pressure: 30.05"   Gusts: NA
Location:  36.83°N, 89.33°W
Report Text: KCIR 290215Z AUTO 18004KT 10SM CLR 05/M02 A3005 RMK AO2 T00521018
Loading
Personal Weather Stations






























Interactive Weather Map New forecast layout! Learn more

10-Day Weather Forecast

Advertisements
Track Severe Weather on mobile